Time;durP1;ratioP1;P1;durP2;ratioP2;P2;SDS_P1;SDS_P2;PMS_P1;PMS_P2;Temp;Humidity;BMP_temperature;BMP_pressure;BME280_temperature;BME280_humidity;BME280_pressure;Samples;Min_cycle;Max_cycle;Signal;HPM_P1;HPM_P2
2023/04/18 00:01:37;;;;;;;;;;;7.70;76.40;;;;;;5065860;28;19933;-70
2023/04/18 00:04:05;;;;;;;;;;;7.70;76.30;;;;;;5067822;28;20078;-71
2023/04/18 00:06:32;;;;;;;;;;;7.70;76.40;;;;;;5063964;28;19928;-72
2023/04/18 00:08:58;;;;;;;;;;;7.70;76.50;;;;;;5036573;28;19928;-71
2023/04/18 00:11:26;;;;;;;;;;;7.60;76.60;;;;;;5047353;28;19924;-72
2023/04/18 00:13:52;;;;;;;;;;;7.60;77.10;;;;;;5064536;28;19929;-71
2023/04/18 00:16:19;;;;;;;;;;;7.50;77.20;;;;;;5063961;28;20454;-72
2023/04/18 00:18:47;;;;;;;;;;;7.60;77.00;;;;;;5069273;28;19928;-70
2023/04/18 00:21:15;;;;;;;;;;;7.60;76.90;;;;;;5064354;28;19982;-70
2023/04/18 00:23:42;;;;;;;;;;;7.60;77.00;;;;;;5063724;28;19925;-71
2023/04/18 00:26:09;;;;;;;;;;;7.50;77.40;;;;;;5069148;28;19931;-71
2023/04/18 00:28:36;;;;;;;;;;;7.40;77.50;;;;;;5065005;28;19935;-70
2023/04/18 00:31:03;;;;;;;;;;;7.40;77.40;;;;;;5067547;28;20019;-71
2023/04/18 00:33:31;;;;;;;;;;;7.50;76.90;;;;;;5070081;28;19929;-70
2023/04/18 00:35:58;;;;;;;;;;;7.40;77.10;;;;;;5069207;28;19929;-72
2023/04/18 00:38:26;;;;;;;;;;;7.40;76.90;;;;;;5065982;28;19932;-70
2023/04/18 00:40:53;;;;;;;;;;;7.40;76.70;;;;;;5069648;28;19928;-71
2023/04/18 00:43:21;;;;;;;;;;;7.40;76.60;;;;;;5066570;28;19935;-71
2023/04/18 00:45:48;;;;;;;;;;;7.30;76.90;;;;;;5066343;28;20007;-70
2023/04/18 00:48:15;;;;;;;;;;;7.20;77.20;;;;;;5068882;28;19931;-71
2023/04/18 00:50:42;;;;;;;;;;;7.20;77.50;;;;;;5068881;28;19982;-71
2023/04/18 00:53:09;;;;;;;;;;;7.20;77.50;;;;;;5066073;28;19925;-70
2023/04/18 00:55:37;;;;;;;;;;;7.10;77.60;;;;;;5069196;28;19932;-71
2023/04/18 00:58:05;;;;;;;;;;;7.10;77.60;;;;;;5065340;28;19944;-70
2023/04/18 01:00:31;;;;;;;;;;;7.10;77.60;;;;;;5066230;28;19985;-71
2023/04/18 01:02:58;;;;;;;;;;;7.00;77.90;;;;;;5065233;28;19924;-70
2023/04/18 01:05:26;;;;;;;;;;;7.00;78.10;;;;;;5065928;28;19924;-70
2023/04/18 01:07:57;;;;;;;;;;;6.90;78.20;;;;;;5065004;28;19928;-71
2023/04/18 01:10:24;;;;;;;;;;;6.90;78.40;;;;;;5064386;28;19928;-70
2023/04/18 01:13:09;;;;;;;;;;;6.90;78.40;;;;;;5061565;28;19932;-70
2023/04/18 01:15:36;;;;;;;;;;;6.80;78.20;;;;;;5049923;28;19931;-71
2023/04/18 01:18:03;;;;;;;;;;;6.80;78.60;;;;;;5066482;28;19978;-71
2023/04/18 01:20:30;;;;;;;;;;;6.70;78.70;;;;;;5067679;28;19994;-71
2023/04/18 01:22:57;;;;;;;;;;;6.80;78.80;;;;;;5043394;28;19925;-69
2023/04/18 01:25:26;;;;;;;;;;;6.70;78.80;;;;;;5056999;28;20212;-69
2023/04/18 01:27:57;;;;;;;;;;;6.70;78.80;;;;;;5048606;28;19963;-71
2023/04/18 01:30:27;;;;;;;;;;;6.70;78.90;;;;;;5043659;28;19924;-72
2023/04/18 01:32:53;;;;;;;;;;;6.70;79.00;;;;;;5060353;28;19968;-71
2023/04/18 01:35:20;;;;;;;;;;;6.60;79.00;;;;;;5064223;28;19934;-71
2023/04/18 01:37:47;;;;;;;;;;;6.60;79.00;;;;;;5064384;28;20378;-70
2023/04/18 01:40:14;;;;;;;;;;;6.60;79.20;;;;;;5066775;28;19986;-70
2023/04/18 01:42:42;;;;;;;;;;;6.60;79.20;;;;;;5066348;28;19960;-71
2023/04/18 01:45:11;;;;;;;;;;;6.60;79.00;;;;;;5063746;28;20023;-71
2023/04/18 01:47:39;;;;;;;;;;;6.70;78.90;;;;;;5065434;28;19967;-70
2023/04/18 01:50:07;;;;;;;;;;;6.70;78.60;;;;;;5063721;28;20379;-71
2023/04/18 01:52:33;;;;;;;;;;;6.70;78.60;;;;;;5063352;28;20402;-69
2023/04/18 01:55:01;;;;;;;;;;;6.80;78.40;;;;;;5047244;28;20002;-71
2023/04/18 01:57:28;;;;;;;;;;;6.80;78.30;;;;;;5063511;28;20020;-69
2023/04/18 01:59:56;;;;;;;;;;;6.80;78.20;;;;;;5044229;28;19932;-70
2023/04/18 02:02:23;;;;;;;;;;;6.80;78.10;;;;;;5044145;28;19933;-70
2023/04/18 02:04:51;;;;;;;;;;;6.80;78.30;;;;;;5039710;28;19947;-70
2023/04/18 02:07:18;;;;;;;;;;;6.70;78.40;;;;;;5066436;28;19935;-70
2023/04/18 02:09:45;;;;;;;;;;;6.70;78.50;;;;;;5064100;28;20444;-70
2023/04/18 02:12:12;;;;;;;;;;;6.70;78.60;;;;;;5040503;28;19928;-71
2023/04/18 02:14:39;;;;;;;;;;;6.70;78.60;;;;;;5045649;28;19928;-70
2023/04/18 02:17:07;;;;;;;;;;;6.70;78.80;;;;;;5064741;28;20010;-70
2023/04/18 02:19:34;;;;;;;;;;;6.70;78.80;;;;;;5064745;28;19940;-70
2023/04/18 02:22:01;;;;;;;;;;;6.60;78.90;;;;;;5065639;28;19939;-70
2023/04/18 02:24:27;;;;;;;;;;;6.60;79.10;;;;;;5063086;28;19928;-71
2023/04/18 02:26:54;;;;;;;;;;;6.50;79.10;;;;;;5064411;28;19931;-71
2023/04/18 02:29:21;;;;;;;;;;;6.60;79.10;;;;;;5045449;28;19936;-71
2023/04/18 02:31:47;;;;;;;;;;;6.50;79.60;;;;;;5065071;28;20287;-71
2023/04/18 02:34:16;;;;;;;;;;;6.50;79.70;;;;;;5049643;28;19972;-72
2023/04/18 02:36:43;;;;;;;;;;;6.40;79.70;;;;;;5064398;28;19936;-70
2023/04/18 02:39:10;;;;;;;;;;;6.50;79.80;;;;;;5066302;28;19958;-71
2023/04/18 02:41:38;;;;;;;;;;;6.40;80.00;;;;;;5063819;28;19939;-70
2023/04/18 02:44:05;;;;;;;;;;;6.40;79.90;;;;;;5061050;28;20019;-70
2023/04/18 02:46:34;;;;;;;;;;;6.40;80.10;;;;;;5033505;28;19932;-71
2023/04/18 02:49:03;;;;;;;;;;;6.40;80.10;;;;;;5045384;28;19924;-70
2023/04/18 02:51:31;;;;;;;;;;;6.40;80.10;;;;;;5046008;28;19933;-70
2023/04/18 02:53:59;;;;;;;;;;;6.40;80.20;;;;;;5039886;28;20024;-69
2023/04/18 02:56:38;;;;;;;;;;;6.40;80.40;;;;;;5035618;28;19940;-71
2023/04/18 02:59:24;;;;;;;;;;;6.40;80.30;;;;;;5059467;28;19939;-70
2023/04/18 03:02:17;;;;;;;;;;;6.40;80.50;;;;;;5043572;28;19936;-70
2023/04/18 03:04:50;;;;;;;;;;;6.40;80.60;;;;;;5043026;28;19928;-71
2023/04/18 03:07:18;;;;;;;;;;;6.40;80.60;;;;;;5061527;28;19935;-69
2023/04/18 03:09:45;;;;;;;;;;;6.40;80.60;;;;;;5062623;28;19924;-70
2023/04/18 03:12:29;;;;;;;;;;;6.50;80.60;;;;;;5049157;28;20321;-71
2023/04/18 03:14:56;;;;;;;;;;;6.50;80.50;;;;;;5041396;28;19931;-70
2023/04/18 03:17:23;;;;;;;;;;;6.50;80.40;;;;;;5065724;28;19933;-71
2023/04/18 03:19:49;;;;;;;;;;;6.50;80.60;;;;;;5045975;28;20395;-70
2023/04/18 03:22:20;;;;;;;;;;;6.50;80.60;;;;;;5069284;28;19931;-69
2023/04/18 03:24:59;;;;;;;;;;;6.50;80.80;;;;;;5050232;28;20027;-70
2023/04/18 03:27:50;;;;;;;;;;;6.50;80.90;;;;;;5052342;28;19928;-70
2023/04/18 03:30:19;;;;;;;;;;;6.50;81.00;;;;;;5063453;28;19928;-70
2023/04/18 03:32:51;;;;;;;;;;;6.50;80.90;;;;;;5047478;28;19942;-70
2023/04/18 03:35:18;;;;;;;;;;;6.50;80.80;;;;;;5071295;28;19929;-70
2023/04/18 03:37:46;;;;;;;;;;;6.50;80.70;;;;;;5071014;28;19963;-70
2023/04/18 03:40:20;;;;;;;;;;;6.50;80.90;;;;;;5051152;28;19930;-70
2023/04/18 03:42:49;;;;;;;;;;;6.50;80.90;;;;;;5051357;28;19928;-70
2023/04/18 03:45:16;;;;;;;;;;;6.50;80.80;;;;;;5066068;28;19944;-70
2023/04/18 03:47:45;;;;;;;;;;;6.50;80.90;;;;;;5048208;28;19974;-68
2023/04/18 03:50:12;;;;;;;;;;;6.60;80.70;;;;;;5053644;28;19982;-70
2023/04/18 03:52:41;;;;;;;;;;;6.50;81.00;;;;;;5049760;28;19933;-69
2023/04/18 03:55:10;;;;;;;;;;;6.50;81.30;;;;;;5050731;28;19998;-69
2023/04/18 03:57:37;;;;;;;;;;;6.50;81.50;;;;;;5049607;28;19935;-71
2023/04/18 04:00:09;;;;;;;;;;;6.60;81.40;;;;;;5052113;28;19933;-71
2023/04/18 04:02:55;;;;;;;;;;;6.60;81.50;;;;;;5049174;28;20005;-70
2023/04/18 04:05:22;;;;;;;;;;;6.60;81.60;;;;;;5038346;28;19929;-71
2023/04/18 04:07:50;;;;;;;;;;;6.70;81.60;;;;;;5063233;28;19928;-71
2023/04/18 04:10:19;;;;;;;;;;;6.70;81.50;;;;;;5043339;28;20383;-70
2023/04/18 04:12:47;;;;;;;;;;;6.70;81.70;;;;;;5047932;28;19931;-72
2023/04/18 04:15:14;;;;;;;;;;;6.70;81.60;;;;;;5047732;28;19928;-70
2023/04/18 04:17:47;;;;;;;;;;;6.80;81.40;;;;;;5050176;28;19929;-71
2023/04/18 04:20:21;;;;;;;;;;;6.80;81.80;;;;;;5052980;28;19955;-70
2023/04/18 04:22:48;;;;;;;;;;;6.80;81.70;;;;;;5051589;28;19928;-70
2023/04/18 04:25:15;;;;;;;;;;;6.90;81.60;;;;;;5069686;28;19924;-69
2023/04/18 04:27:44;;;;;;;;;;;6.90;81.80;;;;;;5069282;28;19971;-70
2023/04/18 04:30:13;;;;;;;;;;;7.00;81.60;;;;;;5048721;28;19971;-71
2023/04/18 04:32:40;;;;;;;;;;;7.00;81.60;;;;;;5050465;28;19933;-71
2023/04/18 04:35:08;;;;;;;;;;;7.00;81.90;;;;;;5068337;28;19964;-70
2023/04/18 04:37:35;;;;;;;;;;;7.00;81.30;;;;;;5063424;28;19932;-70
2023/04/18 04:40:11;;;;;;;;;;;7.00;81.90;;;;;;5064988;28;19929;-70
2023/04/18 04:43:02;;;;;;;;;;;7.00;81.80;;;;;;5064150;28;19928;-71
2023/04/18 04:45:37;;;;;;;;;;;7.10;82.00;;;;;;5063444;28;19994;-70
2023/04/18 04:48:04;;;;;;;;;;;7.10;81.60;;;;;;5068278;28;19925;-71
2023/04/18 04:50:34;;;;;;;;;;;7.10;81.50;;;;;;5065727;28;19935;-71
2023/04/18 04:53:01;;;;;;;;;;;7.10;82.00;;;;;;5070959;28;19924;-71
2023/04/18 04:55:28;;;;;;;;;;;7.10;82.00;;;;;;5045711;28;19939;-70
2023/04/18 04:57:56;;;;;;;;;;;7.20;81.80;;;;;;5063274;28;20015;-70
2023/04/18 05:00:44;;;;;;;;;;;7.20;81.80;;;;;;5062087;28;19940;-70
2023/04/18 05:03:11;;;;;;;;;;;7.20;81.40;;;;;;5048951;28;19928;-70
2023/04/18 05:05:38;;;;;;;;;;;7.20;82.00;;;;;;5067862;28;19928;-71
2023/04/18 05:08:05;;;;;;;;;;;7.30;81.80;;;;;;5066240;28;19932;-70
2023/04/18 05:10:32;;;;;;;;;;;7.30;81.90;;;;;;5066484;28;19929;-69
2023/04/18 05:12:58;;;;;;;;;;;7.30;81.90;;;;;;5071202;28;19924;-70
2023/04/18 05:15:25;;;;;;;;;;;7.40;81.90;;;;;;5043598;28;20338;-71
2023/04/18 05:17:53;;;;;;;;;;;7.40;81.60;;;;;;5050691;28;19932;-70
2023/04/18 05:20:20;;;;;;;;;;;7.40;81.90;;;;;;5048278;28;19989;-68
2023/04/18 05:22:47;;;;;;;;;;;7.40;81.90;;;;;;5070131;28;19932;-69
2023/04/18 05:25:14;;;;;;;;;;;7.40;81.80;;;;;;5065076;28;19924;-70
2023/04/18 05:27:41;;;;;;;;;;;7.40;81.50;;;;;;5045965;28;19932;-70
2023/04/18 05:30:08;;;;;;;;;;;7.50;81.60;;;;;;5046531;28;19929;-69
2023/04/18 05:32:37;;;;;;;;;;;7.50;81.80;;;;;;5066241;28;20009;-69
2023/04/18 05:35:06;;;;;;;;;;;7.50;81.00;;;;;;5067265;28;19994;-70
2023/04/18 05:37:33;;;;;;;;;;;7.50;81.30;;;;;;5065388;28;19938;-69
2023/04/18 05:39:59;;;;;;;;;;;7.50;81.10;;;;;;5069651;28;19931;-71
2023/04/18 05:42:26;;;;;;;;;;;7.50;81.30;;;;;;5065909;28;19928;-70
2023/04/18 05:44:53;;;;;;;;;;;7.60;81.50;;;;;;5069793;28;20367;-70
2023/04/18 05:47:19;;;;;;;;;;;7.60;81.00;;;;;;5066363;28;19932;-71
2023/04/18 05:49:46;;;;;;;;;;;7.60;81.10;;;;;;5064821;28;19924;-70
2023/04/18 05:52:14;;;;;;;;;;;7.60;80.90;;;;;;5066522;28;20339;-71
2023/04/18 05:54:41;;;;;;;;;;;7.60;81.40;;;;;;5069153;28;19974;-71
2023/04/18 05:57:08;;;;;;;;;;;7.60;81.10;;;;;;5061595;28;20400;-69
2023/04/18 05:59:35;;;;;;;;;;;7.60;80.90;;;;;;5068533;28;19933;-69
2023/04/18 06:02:02;;;;;;;;;;;7.70;81.20;;;;;;5063519;28;19951;-71
2023/04/18 06:04:28;;;;;;;;;;;7.70;81.10;;;;;;5064293;28;20480;-70
2023/04/18 06:06:55;;;;;;;;;;;7.70;80.90;;;;;;5065011;28;19935;-69
2023/04/18 06:09:23;;;;;;;;;;;7.80;80.80;;;;;;5062082;28;19924;-70
2023/04/18 06:11:50;;;;;;;;;;;7.90;80.60;;;;;;5066994;28;19924;-69
2023/04/18 06:14:17;;;;;;;;;;;7.90;80.60;;;;;;5069052;28;19924;-70
2023/04/18 06:16:47;;;;;;;;;;;8.10;80.40;;;;;;5068478;28;20313;-70
2023/04/18 06:19:14;;;;;;;;;;;8.10;80.20;;;;;;5066314;28;19986;-71
2023/04/18 06:21:41;;;;;;;;;;;8.10;80.10;;;;;;5068427;28;19924;-70
2023/04/18 06:24:08;;;;;;;;;;;8.10;80.10;;;;;;5068729;28;19925;-69
2023/04/18 06:26:36;;;;;;;;;;;8.10;79.90;;;;;;5064522;28;19935;-69
2023/04/18 06:29:03;;;;;;;;;;;8.20;79.90;;;;;;5063032;28;19925;-71
2023/04/18 06:31:30;;;;;;;;;;;8.30;79.90;;;;;;5066803;28;19924;-71
2023/04/18 06:33:56;;;;;;;;;;;8.40;79.90;;;;;;5066832;28;19954;-70
2023/04/18 06:36:23;;;;;;;;;;;8.50;79.70;;;;;;5067791;28;19928;-71
2023/04/18 06:38:50;;;;;;;;;;;8.50;79.50;;;;;;5069108;28;19933;-70
2023/04/18 06:41:17;;;;;;;;;;;8.60;79.10;;;;;;5066890;28;19940;-71
2023/04/18 06:43:45;;;;;;;;;;;8.80;78.80;;;;;;5068343;28;19929;-70
2023/04/18 06:46:11;;;;;;;;;;;8.90;78.40;;;;;;5067884;28;19925;-69
2023/04/18 06:48:38;;;;;;;;;;;9.00;78.20;;;;;;5068161;28;19924;-70
2023/04/18 06:51:05;;;;;;;;;;;9.10;78.00;;;;;;5060610;28;19939;-70
2023/04/18 06:53:32;;;;;;;;;;;9.20;77.70;;;;;;5064864;28;19956;-68
2023/04/18 06:55:59;;;;;;;;;;;9.30;77.50;;;;;;5068366;28;20010;-69
2023/04/18 06:58:26;;;;;;;;;;;9.40;77.20;;;;;;5072470;28;20074;-69
2023/04/18 07:00:54;;;;;;;;;;;9.50;76.90;;;;;;5069878;28;20037;-70
2023/04/18 07:03:21;;;;;;;;;;;9.50;76.40;;;;;;5068474;28;19928;-69
2023/04/18 07:05:49;;;;;;;;;;;9.40;76.50;;;;;;5067647;28;20015;-70
2023/04/18 07:08:16;;;;;;;;;;;9.60;76.40;;;;;;5069991;28;19940;-69
2023/04/18 07:10:42;;;;;;;;;;;9.70;76.20;;;;;;5070513;28;20520;-68
2023/04/18 07:13:09;;;;;;;;;;;9.70;75.90;;;;;;5072214;28;19932;-67
2023/04/18 07:15:36;;;;;;;;;;;9.70;75.90;;;;;;5070695;28;19924;-70
2023/04/18 07:18:05;;;;;;;;;;;9.80;75.70;;;;;;5070595;28;19925;-70
2023/04/18 07:20:32;;;;;;;;;;;9.90;75.40;;;;;;5065441;28;19957;-70
2023/04/18 07:22:59;;;;;;;;;;;10.10;75.30;;;;;;5064232;28;19925;-70
2023/04/18 07:25:25;;;;;;;;;;;10.20;74.80;;;;;;5071683;28;20036;-68
2023/04/18 07:27:52;;;;;;;;;;;10.40;74.50;;;;;;5072242;28;19928;-69
2023/04/18 07:30:19;;;;;;;;;;;10.50;74.20;;;;;;5071903;28;19958;-68
2023/04/18 07:32:47;;;;;;;;;;;10.70;73.80;;;;;;5069843;28;19976;-70
2023/04/18 07:35:15;;;;;;;;;;;10.90;73.70;;;;;;5069410;28;20023;-69
2023/04/18 07:37:42;;;;;;;;;;;11.10;73.20;;;;;;5067342;28;19964;-68
2023/04/18 07:40:09;;;;;;;;;;;11.20;72.60;;;;;;5062219;28;19928;-69
2023/04/18 07:42:36;;;;;;;;;;;11.30;72.40;;;;;;5070003;28;19928;-69
2023/04/18 07:45:03;;;;;;;;;;;11.40;72.20;;;;;;5071957;28;19925;-70
2023/04/18 07:47:29;;;;;;;;;;;11.50;72.10;;;;;;5064302;28;19931;-69
2023/04/18 07:49:56;;;;;;;;;;;11.60;71.70;;;;;;5065035;28;19932;-68
2023/04/18 07:52:24;;;;;;;;;;;11.60;71.60;;;;;;5068476;28;19932;-68
2023/04/18 07:54:51;;;;;;;;;;;11.70;71.50;;;;;;5071857;28;19929;-69
2023/04/18 07:57:18;;;;;;;;;;;11.90;71.30;;;;;;5063231;28;20031;-69
2023/04/18 07:59:44;;;;;;;;;;;12.00;71.30;;;;;;5063526;28;20021;-68
2023/04/18 08:02:11;;;;;;;;;;;12.10;71.10;;;;;;5066188;28;19929;-69
2023/04/18 08:04:38;;;;;;;;;;;12.20;70.40;;;;;;5064788;28;20016;-68
2023/04/18 08:07:05;;;;;;;;;;;12.40;70.40;;;;;;5062373;28;19947;-69
2023/04/18 08:09:33;;;;;;;;;;;12.40;70.00;;;;;;5067170;28;19928;-68
2023/04/18 08:11:59;;;;;;;;;;;12.50;69.40;;;;;;5071630;28;20441;-68
2023/04/18 08:14:26;;;;;;;;;;;12.50;69.40;;;;;;5070326;28;19939;-70
2023/04/18 08:16:53;;;;;;;;;;;12.60;69.10;;;;;;5065677;28;19924;-68
2023/04/18 08:19:20;;;;;;;;;;;12.60;68.90;;;;;;5063349;28;19924;-69
2023/04/18 08:21:46;;;;;;;;;;;12.70;69.00;;;;;;5066587;28;19938;-70
2023/04/18 08:24:13;;;;;;;;;;;12.90;69.00;;;;;;5065922;28;19932;-70
2023/04/18 08:26:41;;;;;;;;;;;12.90;68.30;;;;;;5067329;28;19928;-69
2023/04/18 08:29:08;;;;;;;;;;;12.80;68.30;;;;;;5065788;28;19933;-68
2023/04/18 08:31:34;;;;;;;;;;;12.90;67.90;;;;;;5062487;28;19924;-70
2023/04/18 08:34:01;;;;;;;;;;;12.90;68.20;;;;;;5067490;28;19924;-69
2023/04/18 08:36:28;;;;;;;;;;;12.90;68.00;;;;;;5070127;28;19933;-69
2023/04/18 08:38:55;;;;;;;;;;;13.10;68.40;;;;;;5064730;28;19929;-68
2023/04/18 08:41:22;;;;;;;;;;;13.20;67.80;;;;;;5065963;28;19932;-69
2023/04/18 08:43:51;;;;;;;;;;;13.40;67.80;;;;;;5068928;28;20011;-70
2023/04/18 08:46:17;;;;;;;;;;;13.60;67.70;;;;;;5069257;28;20016;-69
2023/04/18 08:48:45;;;;;;;;;;;13.70;67.20;;;;;;5069125;28;19928;-69
2023/04/18 08:51:12;;;;;;;;;;;13.90;67.20;;;;;;5070294;28;20386;-70
2023/04/18 08:53:40;;;;;;;;;;;14.10;67.10;;;;;;5068554;28;19928;-70
2023/04/18 08:56:09;;;;;;;;;;;14.10;66.70;;;;;;5070602;28;19975;-69
2023/04/18 08:58:38;;;;;;;;;;;14.00;66.20;;;;;;5070350;28;19959;-68
2023/04/18 09:01:06;;;;;;;;;;;14.10;65.90;;;;;;5068565;28;20331;-69
2023/04/18 09:03:38;;;;;;;;;;;14.20;65.80;;;;;;5069080;28;20412;-68
2023/04/18 09:06:12;;;;;;;;;;;14.30;65.60;;;;;;5069660;28;19928;-69
2023/04/18 09:08:40;;;;;;;;;;;14.20;65.30;;;;;;5061775;28;19932;-69
2023/04/18 09:11:24;;;;;;;;;;;14.10;65.40;;;;;;5064625;28;19929;-68
2023/04/18 09:13:52;;;;;;;;;;;14.00;65.80;;;;;;5067538;28;19971;-68
2023/04/18 09:16:21;;;;;;;;;;;14.00;66.10;;;;;;5069532;28;19929;-69
2023/04/18 09:19:06;;;;;;;;;;;14.00;66.10;;;;;;5067448;28;20403;-69
2023/04/18 09:21:34;;;;;;;;;;;14.00;65.90;;;;;;5065928;28;19929;-68
2023/04/18 09:24:16;;;;;;;;;;;14.10;66.20;;;;;;5066610;28;19928;-69
2023/04/18 09:26:43;;;;;;;;;;;14.20;66.00;;;;;;5066567;28;19924;-69
2023/04/18 09:29:09;;;;;;;;;;;14.30;66.00;;;;;;5069233;28;19924;-69
2023/04/18 09:31:51;;;;;;;;;;;14.20;66.00;;;;;;5063210;28;20023;-70
2023/04/18 09:34:23;;;;;;;;;;;14.20;65.60;;;;;;5062299;28;20383;-70
2023/04/18 09:37:04;;;;;;;;;;;14.20;65.90;;;;;;5065121;28;19924;-69
2023/04/18 09:39:31;;;;;;;;;;;14.10;66.00;;;;;;5064170;28;19936;-68
2023/04/18 09:41:58;;;;;;;;;;;14.10;65.80;;;;;;5064912;28;19928;-69
2023/04/18 09:44:25;;;;;;;;;;;14.20;65.20;;;;;;5065730;28;19932;-70
2023/04/18 09:46:53;;;;;;;;;;;14.50;65.00;;;;;;5063100;28;20417;-68
2023/04/18 09:49:19;;;;;;;;;;;14.70;65.50;;;;;;5061679;28;19936;-68
2023/04/18 09:51:50;;;;;;;;;;;14.80;65.10;;;;;;5060252;28;21653;-69
2023/04/18 09:54:17;;;;;;;;;;;14.80;64.70;;;;;;5062706;28;19980;-69
2023/04/18 09:56:44;;;;;;;;;;;14.70;64.30;;;;;;5065444;28;19932;-69
2023/04/18 09:59:11;;;;;;;;;;;14.90;64.00;;;;;;5062145;28;19934;-67
2023/04/18 10:01:38;;;;;;;;;;;14.90;63.70;;;;;;5059901;28;19928;-68
2023/04/18 10:04:07;;;;;;;;;;;15.10;63.20;;;;;;5063142;28;19932;-68
2023/04/18 10:06:37;;;;;;;;;;;15.00;63.50;;;;;;5067480;28;19925;-69
2023/04/18 10:09:04;;;;;;;;;;;14.90;63.40;;;;;;5058068;28;19924;-68
2023/04/18 10:11:31;;;;;;;;;;;14.80;63.60;;;;;;5044727;28;19925;-69
2023/04/18 10:14:00;;;;;;;;;;;14.80;64.00;;;;;;5068856;28;23013;-67
2023/04/18 10:16:28;;;;;;;;;;;14.90;63.50;;;;;;5064468;28;19932;-69
2023/04/18 10:18:55;;;;;;;;;;;15.10;63.00;;;;;;5065012;28;19928;-69
2023/04/18 10:21:23;;;;;;;;;;;15.40;63.20;;;;;;5065231;28;19924;-70
2023/04/18 10:23:50;;;;;;;;;;;15.40;62.70;;;;;;5066119;28;19954;-69
2023/04/18 10:26:16;;;;;;;;;;;15.30;62.20;;;;;;5064072;28;20039;-69
2023/04/18 10:28:51;;;;;;;;;;;15.20;61.70;;;;;;5066679;28;19932;-68
2023/04/18 10:31:18;;;;;;;;;;;15.10;61.40;;;;;;5065454;28;19928;-69
2023/04/18 10:33:46;;;;;;;;;;;15.00;61.60;;;;;;5068529;28;19931;-69
2023/04/18 10:36:19;;;;;;;;;;;15.00;61.60;;;;;;5065617;28;19936;-69
2023/04/18 10:38:51;;;;;;;;;;;14.90;61.30;;;;;;5069234;28;20029;-69
2023/04/18 10:41:20;;;;;;;;;;;14.90;61.80;;;;;;5068984;28;19924;-69
2023/04/18 10:44:05;;;;;;;;;;;14.90;61.70;;;;;;5065943;28;19924;-68
2023/04/18 10:46:32;;;;;;;;;;;14.80;61.30;;;;;;5066704;28;19932;-67
2023/04/18 10:49:12;;;;;;;;;;;14.70;61.10;;;;;;5067165;28;20377;-69
2023/04/18 10:51:39;;;;;;;;;;;14.70;61.90;;;;;;5069713;28;20294;-68
2023/04/18 10:54:09;;;;;;;;;;;14.70;61.00;;;;;;5066031;28;19924;-69
2023/04/18 10:56:36;;;;;;;;;;;14.70;61.70;;;;;;5070904;28;19929;-67
2023/04/18 10:59:03;;;;;;;;;;;14.60;60.80;;;;;;5068972;28;19955;-69
2023/04/18 11:01:31;;;;;;;;;;;14.60;61.10;;;;;;5070184;28;19955;-67
2023/04/18 11:03:58;;;;;;;;;;;14.60;61.50;;;;;;5070751;28;19935;-68
2023/04/18 11:06:26;;;;;;;;;;;14.60;61.30;;;;;;5067729;28;19928;-68
2023/04/18 11:09:08;;;;;;;;;;;14.60;62.00;;;;;;5061303;28;20495;-68
2023/04/18 11:11:36;;;;;;;;;;;14.60;61.60;;;;;;5062600;28;19955;-68
2023/04/18 11:14:03;;;;;;;;;;;14.70;61.70;;;;;;5067288;28;19935;-68
2023/04/18 11:16:33;;;;;;;;;;;14.60;61.80;;;;;;5066515;28;19929;-67
2023/04/18 11:19:00;;;;;;;;;;;14.60;61.90;;;;;;5063779;28;19935;-68
2023/04/18 11:21:27;;;;;;;;;;;14.60;62.40;;;;;;5066868;28;20016;-68
2023/04/18 11:23:55;;;;;;;;;;;14.60;62.30;;;;;;5070399;28;19964;-68
2023/04/18 11:26:24;;;;;;;;;;;14.60;62.80;;;;;;5070121;28;19929;-68
2023/04/18 11:28:52;;;;;;;;;;;14.60;61.60;;;;;;5068902;28;19939;-69
2023/04/18 11:31:22;;;;;;;;;;;14.60;61.60;;;;;;5069747;28;19933;-68
2023/04/18 11:33:48;;;;;;;;;;;14.60;61.70;;;;;;5069917;28;19924;-67
2023/04/18 11:36:15;;;;;;;;;;;14.60;62.20;;;;;;5065035;28;19936;-68
2023/04/18 11:38:42;;;;;;;;;;;14.60;62.20;;;;;;5070839;28;19936;-68
2023/04/18 11:41:12;;;;;;;;;;;14.70;62.10;;;;;;5069984;28;20316;-68
2023/04/18 11:43:41;;;;;;;;;;;14.60;62.20;;;;;;5070324;28;19924;-68
2023/04/18 11:46:10;;;;;;;;;;;14.70;62.70;;;;;;5066997;28;19974;-68
2023/04/18 11:48:37;;;;;;;;;;;14.80;62.30;;;;;;5069755;28;20366;-69
2023/04/18 11:51:04;;;;;;;;;;;14.90;62.10;;;;;;5050321;28;19931;-69
2023/04/18 11:53:32;;;;;;;;;;;14.90;62.10;;;;;;5067233;28;19947;-68
2023/04/18 11:55:58;;;;;;;;;;;14.90;62.10;;;;;;5069029;28;20331;-68
2023/04/18 11:58:30;;;;;;;;;;;14.90;62.10;;;;;;5070258;28;19929;-67
2023/04/18 12:00:56;;;;;;;;;;;14.90;62.50;;;;;;5063824;28;19972;-67
2023/04/18 12:03:24;;;;;;;;;;;14.90;62.10;;;;;;5052554;28;19928;-68
2023/04/18 12:05:58;;;;;;;;;;;14.90;62.30;;;;;;5064791;28;19924;-69
2023/04/18 12:08:25;;;;;;;;;;;15.00;62.20;;;;;;5065278;28;19925;-69
2023/04/18 12:10:53;;;;;;;;;;;15.00;62.00;;;;;;5046953;28;20044;-68
2023/04/18 12:13:24;;;;;;;;;;;15.00;61.80;;;;;;5070445;28;19925;-68
2023/04/18 12:15:51;;;;;;;;;;;15.00;62.10;;;;;;5058509;28;20310;-68
2023/04/18 12:18:18;;;;;;;;;;;15.00;62.30;;;;;;5058071;28;19935;-68
2023/04/18 12:20:48;;;;;;;;;;;14.90;62.10;;;;;;5070604;28;19928;-67
2023/04/18 12:23:29;;;;;;;;;;;14.90;62.10;;;;;;5070846;28;20436;-68
2023/04/18 12:25:58;;;;;;;;;;;14.90;62.30;;;;;;5070284;28;19929;-68
2023/04/18 12:28:26;;;;;;;;;;;15.00;62.20;;;;;;5071289;28;19924;-67
2023/04/18 12:30:52;;;;;;;;;;;15.10;61.50;;;;;;5067337;28;19935;-68
2023/04/18 12:33:19;;;;;;;;;;;15.10;61.40;;;;;;5070096;28;19963;-69
2023/04/18 12:35:47;;;;;;;;;;;15.30;61.60;;;;;;5064975;28;19932;-68
2023/04/18 12:38:14;;;;;;;;;;;15.30;61.30;;;;;;5052764;28;19925;-67
2023/04/18 12:40:41;;;;;;;;;;;15.30;61.70;;;;;;5071697;28;19982;-68
2023/04/18 12:43:08;;;;;;;;;;;15.20;61.30;;;;;;5070800;28;19935;-69
2023/04/18 12:45:35;;;;;;;;;;;15.20;62.10;;;;;;5072288;28;19925;-67
2023/04/18 12:48:02;;;;;;;;;;;15.10;62.20;;;;;;5070717;28;20019;-69
2023/04/18 12:50:29;;;;;;;;;;;15.00;61.80;;;;;;5069087;28;19935;-69
2023/04/18 12:52:58;;;;;;;;;;;14.90;61.40;;;;;;5071038;28;20348;-68
2023/04/18 12:55:25;;;;;;;;;;;14.90;61.40;;;;;;5069251;28;19925;-67
2023/04/18 12:57:53;;;;;;;;;;;14.90;61.50;;;;;;5064905;28;19928;-68
2023/04/18 13:00:22;;;;;;;;;;;14.90;62.50;;;;;;5071392;28;20383;-68
2023/04/18 13:02:49;;;;;;;;;;;14.90;61.80;;;;;;5069791;28;19950;-68
2023/04/18 13:05:17;;;;;;;;;;;15.00;61.90;;;;;;5069744;28;20310;-69
2023/04/18 13:07:46;;;;;;;;;;;15.20;62.10;;;;;;5071785;28;20302;-68
2023/04/18 13:10:16;;;;;;;;;;;15.20;62.50;;;;;;5070557;28;19929;-68
2023/04/18 13:12:43;;;;;;;;;;;15.20;61.90;;;;;;5070941;28;19924;-69
2023/04/18 13:15:10;;;;;;;;;;;15.20;61.60;;;;;;5059617;28;19978;-69
2023/04/18 13:17:37;;;;;;;;;;;15.20;61.50;;;;;;5063596;28;19936;-68
2023/04/18 13:20:05;;;;;;;;;;;15.20;61.40;;;;;;5068181;28;19939;-68
2023/04/18 13:22:32;;;;;;;;;;;15.20;61.90;;;;;;5065731;28;19931;-68
2023/04/18 13:24:58;;;;;;;;;;;15.10;62.10;;;;;;5067204;28;19939;-68
2023/04/18 13:27:27;;;;;;;;;;;15.00;62.20;;;;;;5053935;28;19929;-69
2023/04/18 13:29:55;;;;;;;;;;;14.90;62.80;;;;;;5068166;28;19978;-68
2023/04/18 13:32:22;;;;;;;;;;;15.00;62.70;;;;;;5067309;28;19932;-68
2023/04/18 13:34:49;;;;;;;;;;;15.10;63.20;;;;;;5065702;28;19935;-68
2023/04/18 13:37:15;;;;;;;;;;;15.20;62.70;;;;;;5066439;28;19928;-68
2023/04/18 13:39:42;;;;;;;;;;;15.40;62.60;;;;;;5067894;28;19929;-69
2023/04/18 13:42:09;;;;;;;;;;;15.50;62.70;;;;;;5069272;28;19928;-68
2023/04/18 13:44:37;;;;;;;;;;;15.60;61.60;;;;;;5067290;28;19964;-68
2023/04/18 13:47:05;;;;;;;;;;;15.60;61.40;;;;;;5065032;28;20424;-67
2023/04/18 13:49:33;;;;;;;;;;;15.50;60.70;;;;;;5067029;28;19935;-68
2023/04/18 13:51:59;;;;;;;;;;;15.40;61.20;;;;;;5068049;28;19936;-68
2023/04/18 13:54:27;;;;;;;;;;;15.30;60.50;;;;;;5047626;28;20020;-68
2023/04/18 13:56:54;;;;;;;;;;;15.30;61.10;;;;;;5061454;28;19928;-68
2023/04/18 13:59:20;;;;;;;;;;;15.20;61.30;;;;;;5068208;28;20003;-69
2023/04/18 14:01:49;;;;;;;;;;;15.10;61.30;;;;;;5037936;28;20287;-69
2023/04/18 14:04:15;;;;;;;;;;;15.20;61.50;;;;;;5067015;28;19935;-68
2023/04/18 14:06:44;;;;;;;;;;;15.20;60.90;;;;;;5065183;28;19968;-69
2023/04/18 14:09:10;;;;;;;;;;;15.20;60.70;;;;;;5066790;28;19968;-67
2023/04/18 14:11:37;;;;;;;;;;;15.30;61.00;;;;;;5066852;28;19978;-69
2023/04/18 14:14:04;;;;;;;;;;;15.30;61.50;;;;;;5066005;28;19928;-67
2023/04/18 14:16:32;;;;;;;;;;;15.20;62.10;;;;;;5065827;28;19939;-68
2023/04/18 14:19:00;;;;;;;;;;;15.20;62.20;;;;;;5062834;28;19944;-67
2023/04/18 14:21:27;;;;;;;;;;;15.10;62.20;;;;;;5067179;28;19928;-67
2023/04/18 14:23:54;;;;;;;;;;;14.90;62.20;;;;;;5068885;28;19981;-68
2023/04/18 14:26:21;;;;;;;;;;;14.90;62.60;;;;;;5066973;28;19938;-68
2023/04/18 14:28:48;;;;;;;;;;;14.90;62.90;;;;;;5065654;28;20305;-69
2023/04/18 14:31:15;;;;;;;;;;;15.00;63.10;;;;;;5067469;28;19925;-69